ADDS TAF Board (Experimental) INFO Settings
IDs: Format: Expanded Condensed

KSLC - Salt Lake City Intl, UT, US

Issued at 0256 UTC 26 May 2015
Updated at: 0534 UTC 26 May 2015
Time0453Z 26/06Z 26/07Z 26/08Z 26/09Z 26/10Z 26/11Z 26/12Z 26/13Z 26/14Z 26/15Z 26/16Z 26/17Z 26/18Z
Type OBS PRVL PRVL PRVL PRVL PRVL PRVL PRVL PRVL PRVL PRVL PRVL PRVL PRVL
VIS 10 >6 >6 >6 >6 >6 >6 >6 >6 >6 >6 >6 >6 >6
CIG -- -- -- -- -- -- 70 70 70 70 50 50 50 50
Cover FEW SCT SCT SCT SCT SCT BKN BKN BKN BKN OVC OVC OVC OVC
FltCat VFR VFR VFR VFR VFR VFR VFR VFR VFR VFR VFR VFR VFR VFR
WX -- -- -- -- -- -- VCSH VCSH VCSH VCSH -SHRA -SHRA -SHRA -SHRA
WDir VRB 150 150 150 150 150 160 160 160 160 150 150 150 150
WSpd 0 9 9 9 9 9 10 10 10 10 6 6 6 6
WGst -- -- -- -- -- -- -- -- -- -- -- -- -- --
R14/32
XWnd VRB 0 0 0 0 0 -1 -1 -1 -1 0 0 0 0
HWnd VRB 9 9 9 9 9 10 10 10 10 6 6 6 6
R16/34
XWnd VRB 4 4 4 4 4 3 3 3 3 3 3 3 3
HWnd VRB 8 8 8 8 8 10 10 10 10 5 5 5 5
R17/35
XWnd VRB 4 4 4 4 4 3 3 3 3 3 3 3 3
HWnd VRB 8 8 8 8 8 9 9 9 9 5 5 5 5
RHB/18
XWnd VRB -4 -4 -4 -4 -4 -3 -3 -3 -3 -3 -3 -3 -3
HWnd VRB -8 -8 -8 -8 -8 -9 -9 -9 -9 -5 -5 -5 -5

NOTE: TEMPO conditions in [brackets]. Keep in mind TEMPO conditions might be better (lower impact) than prevailing conditions.

Raw TAF
KSLC 260256Z 2603/2706 34004KT P6SM VCSH FEW070 SCT100
  FM260400 15009KT P6SM SCT100 SCT200
  FM261100 16010KT P6SM VCSH BKN070 BKN090
  FM261500 15006KT P6SM -SHRA BKN050 OVC070
  FM262100 32007KT P6SM VCSH BKN060 BKN080


Raw METAR
KSLC 260453Z 00000KT 10SM FEW100 FEW160 17/07 A2997 RMK AO2 SLP113 T01670072 $
KSLC 260353Z 25004KT 10SM FEW050 SCT100 SCT160 17/07 A2995 RMK AO2 SLP109 T01670072 $
KSLC 260253Z 35003KT 10SM FEW050 SCT110 BKN160 19/07 A2994 RMK AO2 LTG DSNT S AND SW SLP103 CB DSNT S T01890067 53004 $

METAR Board
Radar Display
Forecast Discussion

TAF Board Legend

Potential Impact
Threat None Slight Moderate High
Visibility (sm) ≥5.1 5.1>X≥3 3>X≥1 <1
Ceiling (100 ft) ≥30.1 30.1>X≥10 10>X≥5 <5
Wind Speed (kt) <10 10≤X<20 20≤X<30 ≥30
Wind Gust (kt) <15 15≤X<25 25≤X<35 ≥35
Weather No Wx Reported VCTS,-TS,-FZRA,SN TS,FZRA +TS,+FZRA,+SN